Time;durP1;ratioP1;P1;durP2;ratioP2;P2;SDS_P1;SDS_P2;PMS_P1;PMS_P2;Temp;Humidity;BMP_temperature;BMP_pressure;BME280_temperature;BME280_humidity;BME280_pressure;Samples;Min_cycle;Max_cycle;Signal;HPM_P1;HPM_P2
2022/03/09 00:01:56;;;;;;;5.97;2.95;;;;;;;0.87;87.09;101573.78;5254639;28;20052;-77
2022/03/09 00:04:26;;;;;;;5.55;2.78;;;;;;;0.83;86.71;101574.56;5249118;28;20481;-76
2022/03/09 00:06:56;;;;;;;7.38;2.53;;;;;;;0.78;87.93;101586.47;5253979;28;20390;-77
2022/03/09 00:09:27;;;;;;;6.15;2.55;;;;;;;0.83;88.00;101582.28;5246550;28;20137;-76
2022/03/09 00:11:57;;;;;;;5.57;2.53;;;;;;;0.86;87.28;101573.75;5245907;28;20051;-77
2022/03/09 00:14:27;;;;;;;7.50;2.60;;;;;;;0.85;87.48;101567.75;5254194;28;20119;-77
2022/03/09 00:16:58;;;;;;;5.60;2.70;;;;;;;0.83;88.13;101573.69;5250703;28;20032;-77
2022/03/09 00:19:28;;;;;;;4.55;2.38;;;;;;;0.82;88.15;101577.09;5254438;28;20027;-77
2022/03/09 00:21:58;;;;;;;5.03;2.60;;;;;;;0.76;88.48;101570.13;5250726;28;20099;-77
2022/03/09 00:24:29;;;;;;;5.80;2.88;;;;;;;0.71;88.71;101592.31;5253944;28;20028;-76
2022/03/09 00:27:00;;;;;;;5.38;2.42;;;;;;;0.68;89.05;101591.38;5250926;28;20050;-75
2022/03/09 00:29:30;;;;;;;8.00;2.58;;;;;;;0.68;89.24;101587.13;5254512;28;20043;-76
2022/03/09 00:32:00;;;;;;;6.72;2.80;;;;;;;0.69;89.91;101593.16;5250832;28;20073;-77
2022/03/09 00:34:31;;;;;;;5.93;2.85;;;;;;;0.57;89.40;101592.88;5253800;28;20111;-76
2022/03/09 00:37:01;;;;;;;5.85;2.60;;;;;;;0.61;90.36;101592.97;5251486;28;20031;-75
2022/03/09 00:39:31;;;;;;;5.68;2.42;;;;;;;0.61;89.92;101585.28;5249055;28;20036;-76
2022/03/09 00:42:02;;;;;;;4.72;2.35;;;;;;;0.78;87.82;101593.31;5246900;28;20028;-77
2022/03/09 00:44:32;;;;;;;5.78;2.72;;;;;;;0.65;88.33;101597.34;5254925;28;20028;-77
2022/03/09 00:47:03;;;;;;;5.65;2.78;;;;;;;0.63;88.31;101598.13;5251588;28;20190;-77
2022/03/09 00:49:33;;;;;;;6.18;2.70;;;;;;;0.58;89.41;101600.59;5253156;28;20055;-77
2022/03/09 00:52:04;;;;;;;4.68;2.58;;;;;;;0.55;90.29;101597.97;5251274;28;20107;-77
2022/03/09 00:54:34;;;;;;;5.10;2.60;;;;;;;0.56;89.74;101597.13;5253450;28;20089;-76
2022/03/09 00:57:04;;;;;;;8.88;2.65;;;;;;;0.31;91.30;101599.16;5252674;28;20032;-76
2022/03/09 00:59:34;;;;;;;5.22;2.75;;;;;;;0.34;91.59;101594.97;5256968;28;20032;-77
2022/03/09 01:02:05;;;;;;;7.60;3.00;;;;;;;0.37;91.04;101592.44;5255316;28;20032;-77
2022/03/09 01:04:35;;;;;;;6.28;3.08;;;;;;;0.31;90.51;101588.88;5256831;28;20392;-77
2022/03/09 01:07:06;;;;;;;6.15;2.60;;;;;;;0.34;90.33;101586.38;5255660;28;20070;-77
2022/03/09 01:09:36;;;;;;;6.65;2.90;;;;;;;0.30;89.82;101592.28;5249477;28;20040;-77
2022/03/09 01:12:07;;;;;;;5.97;2.28;;;;;;;0.27;89.85;101587.09;5251103;28;20021;-76
2022/03/09 01:14:37;;;;;;;7.25;3.03;;;;;;;0.23;89.90;101603.28;5255357;28;20036;-75
2022/03/09 01:17:07;;;;;;;5.63;2.97;;;;;;;0.27;90.65;101593.09;5255248;28;20389;-77
2022/03/09 01:19:41;;;;;;;6.93;3.00;;;;;;;0.19;90.39;101599.75;5252883;28;20075;-77
2022/03/09 01:22:11;;;;;;;9.50;3.15;;;;;;;0.25;90.47;101605.03;5242858;28;20206;-76
2022/03/09 01:24:41;;;;;;;5.43;3.00;;;;;;;0.25;90.29;101602.47;5249280;28;20390;-77
2022/03/09 01:27:12;;;;;;;7.30;2.60;;;;;;;0.02;90.90;101592.53;5250211;28;20078;-77
2022/03/09 01:29:42;;;;;;;6.50;3.38;;;;;;;-0.07;92.54;101594.88;5253239;28;20079;-76
2022/03/09 01:32:12;;;;;;;5.55;2.90;;;;;;;0.05;91.25;101590.03;5254514;28;20508;-77
2022/03/09 01:34:43;;;;;;;5.28;2.83;;;;;;;0.07;91.12;101583.22;5255001;28;20059;-77
2022/03/09 01:37:13;;;;;;;5.82;2.95;;;;;;;0.07;90.56;101583.22;5254506;28;20483;-77
2022/03/09 01:39:43;;;;;;;6.28;2.70;;;;;;;0.09;90.52;101582.44;5247673;28;20029;-77
2022/03/09 01:42:14;;;;;;;9.02;2.80;;;;;;;0.00;90.20;101582.22;5251030;28;20024;-76
2022/03/09 01:44:44;;;;;;;7.38;2.75;;;;;;;0.07;90.50;101578.94;5254705;28;20135;-77
2022/03/09 01:47:14;;;;;;;5.72;2.85;;;;;;;0.07;90.10;101583.22;5253701;28;20498;-77
2022/03/09 01:49:45;;;;;;;6.28;2.72;;;;;;;-0.02;90.44;101583.88;5251995;28;20031;-75
2022/03/09 01:52:15;;;;;;;5.93;2.90;;;;;;;0.00;91.89;101592.47;5253730;28;20036;-76
2022/03/09 01:54:45;;;;;;;5.22;2.80;;;;;;;0.08;91.40;101595.22;5252510;28;20033;-77
2022/03/09 01:57:15;;;;;;;5.28;2.67;;;;;;;-0.15;90.81;101604.13;5255119;28;20032;-77
2022/03/09 01:59:50;;;;;;;6.90;2.92;;;;;;;-0.09;92.13;101600.78;5252253;28;20065;-76
2022/03/09 02:02:20;;;;;;;7.53;2.20;;;;;;;-0.19;90.85;101612.56;5256550;28;20135;-77
2022/03/09 02:04:51;;;;;;;6.15;2.78;;;;;;;-0.11;91.91;101613.63;5253362;28;20467;-76
2022/03/09 02:09:41;;;;;;;7.40;3.10;;;;;;;-0.10;90.28;101611.91;5255472;28;20032;-76
2022/03/09 02:10:12;;;;;;;7.07;3.08;;;;;;;-0.08;90.37;101602.56;5241921;28;20034;-77
2022/03/09 02:12:42;;;;;;;3.92;2.50;;;;;;;-0.16;90.75;101604.06;5251676;28;20032;-77
2022/03/09 02:15:12;;;;;;;7.72;3.22;;;;;;;-0.01;89.66;101603.59;5253630;28;20021;-77
2022/03/09 02:17:43;;;;;;;5.93;2.88;;;;;;;-0.23;91.36;101602.19;5251415;28;20036;-77
2022/03/09 02:20:13;;;;;;;6.15;3.13;;;;;;;-0.32;91.99;101597.72;5251817;28;20024;-75
2022/03/09 02:22:44;;;;;;;6.25;3.17;;;;;;;-0.34;93.35;101609.66;5251249;28;20504;-77
2022/03/09 02:25:16;;;;;;;7.72;3.15;;;;;;;-0.32;92.72;101607.97;5253452;28;20465;-76
2022/03/09 02:27:47;;;;;;;5.68;2.88;;;;;;;-0.15;92.81;101601.53;5255942;28;20030;-75
2022/03/09 02:30:18;;;;;;;7.53;2.95;;;;;;;0.02;90.78;101601.09;5254720;28;20465;-76
2022/03/09 02:32:49;;;;;;;7.65;3.08;;;;;;;-0.20;90.78;101599.69;5264129;22;20063;-77
2022/03/09 02:35:20;;;;;;;8.77;2.97;;;;;;;-0.26;91.83;101602.97;5257858;28;20110;-77
2022/03/09 02:37:50;;;;;;;5.85;3.10;;;;;;;-0.21;92.38;101600.53;5261308;28;20039;-77
2022/03/09 02:40:20;;;;;;;6.45;2.80;;;;;;;-0.23;92.51;101604.75;5258287;28;20020;-77
2022/03/09 02:42:51;;;;;;;5.10;3.00;;;;;;;-0.33;91.62;101601.09;5246106;28;20079;-77
2022/03/09 02:45:21;;;;;;;9.15;3.03;;;;;;;-0.40;92.41;101606.91;5240342;28;20071;-76
2022/03/09 02:47:51;;;;;;;7.00;2.97;;;;;;;-0.30;92.29;101608.88;5242458;28;20129;-77
2022/03/09 02:50:21;;;;;;;7.22;2.97;;;;;;;-0.25;89.43;101607.28;5239492;28;20020;-77
2022/03/09 02:52:52;;;;;;;5.63;2.85;;;;;;;-0.40;91.31;101608.63;5236210;28;20040;-77
2022/03/09 02:55:22;;;;;;;6.38;3.25;;;;;;;-0.49;91.30;101599.00;5239252;28;20115;-77
2022/03/09 02:57:52;;;;;;;6.75;3.17;;;;;;;-0.55;92.17;101605.66;5236779;28;20032;-77
2022/03/09 03:00:23;;;;;;;6.28;3.13;;;;;;;-0.60;92.79;101604.66;5240955;28;20025;-77
2022/03/09 03:02:53;;;;;;;7.10;2.90;;;;;;;-0.62;92.08;101606.31;5238732;28;20032;-77
2022/03/09 03:05:23;;;;;;;5.68;3.10;;;;;;;-0.74;93.12;101606.03;5236620;28;20517;-77
2022/03/09 03:07:54;;;;;;;5.82;3.05;;;;;;;-0.93;95.47;101611.50;5240113;28;20028;-76
2022/03/09 03:10:24;;;;;;;6.60;2.92;;;;;;;-0.95;96.79;101625.97;5239349;28;20029;-76
2022/03/09 03:12:54;;;;;;;5.88;2.70;;;;;;;-1.22;98.83;101622.66;5239293;28;20118;-76
2022/03/09 03:15:24;;;;;;;6.85;3.08;;;;;;;-1.13;100.00;101620.31;5236663;28;20020;-76
2022/03/09 03:17:55;;;;;;;6.82;2.80;;;;;;;-1.11;100.00;101618.66;5239120;28;20092;-77
2022/03/09 03:20:25;;;;;;;6.25;3.08;;;;;;;-1.21;97.94;101620.13;5235403;28;20025;-77
2022/03/09 03:22:55;;;;;;;6.75;3.17;;;;;;;-1.10;98.27;101626.41;5235100;28;20032;-76
2022/03/09 03:25:25;;;;;;;5.75;2.72;;;;;;;-1.09;97.88;101624.75;5232560;28;20071;-76
2022/03/09 03:27:56;;;;;;;7.28;3.40;;;;;;;-1.09;98.59;101628.16;5235189;28;20111;-77
2022/03/09 03:30:26;;;;;;;7.82;2.85;;;;;;;-1.23;98.66;101626.91;5230928;28;20033;-76
2022/03/09 03:32:56;;;;;;;6.35;2.97;;;;;;;-1.24;100.00;101619.19;5239785;28;20630;-76
2022/03/09 03:35:27;;;;;;;5.13;2.72;;;;;;;-1.34;100.00;101619.72;5235397;28;20037;-76
2022/03/09 03:37:57;;;;;;;7.13;2.97;;;;;;;-1.29;100.00;101615.59;5234118;28;20494;-77
2022/03/09 03:40:27;;;;;;;6.72;2.95;;;;;;;-1.27;100.00;101616.53;5234031;28;20024;-77
2022/03/09 03:42:58;;;;;;;7.65;2.92;;;;;;;-1.29;100.00;101621.59;5231168;28;20128;-77
2022/03/09 03:45:28;;;;;;;6.80;2.40;;;;;;;-1.23;100.00;101618.34;5235374;28;20032;-75
2022/03/09 03:47:59;;;;;;;6.70;2.95;;;;;;;-1.11;99.14;101618.66;5235218;28;20029;-76
2022/03/09 03:50:29;;;;;;;5.53;2.90;;;;;;;-0.97;98.96;101620.81;5226521;28;20032;-77
2022/03/09 03:52:59;;;;;;;4.85;2.65;;;;;;;-1.05;97.56;101621.44;5233606;28;20035;-77
2022/03/09 03:55:30;;;;;;;9.15;2.90;;;;;;;-1.01;96.49;101625.81;5238366;28;20028;-77
2022/03/09 03:58:00;;;;;;;5.82;2.95;;;;;;;-1.12;96.99;101622.94;5241305;28;20039;-77
2022/03/09 04:00:30;;;;;;;6.35;3.00;;;;;;;-1.09;97.56;101628.16;5236207;28;20099;-75
2022/03/09 04:03:00;;;;;;;6.45;2.58;;;;;;;-1.12;96.40;101627.19;5225956;28;20033;-75
2022/03/09 04:05:31;;;;;;;6.53;2.92;;;;;;;-1.12;95.98;101628.06;5234420;28;20119;-76
2022/03/09 04:08:02;;;;;;;6.03;2.63;;;;;;;-1.24;97.21;101622.59;5226524;28;20029;-77
2022/03/09 04:10:32;;;;;;;4.43;2.45;;;;;;;-1.24;97.24;101629.44;5233366;28;20077;-77
2022/03/09 04:13:04;;;;;;;6.30;2.88;;;;;;;-1.13;96.71;101628.03;5229783;28;20127;-77
2022/03/09 04:15:34;;;;;;;5.75;2.90;;;;;;;-1.13;96.65;101630.59;5224012;28;20071;-77
2022/03/09 04:18:04;;;;;;;5.30;2.83;;;;;;;-1.00;96.86;101623.28;5231446;28;20459;-77
2022/03/09 04:20:35;;;;;;;5.07;3.10;;;;;;;-0.97;96.65;101627.63;5226393;28;20469;-77
2022/03/09 04:23:08;;;;;;;6.28;3.13;;;;;;;-0.97;96.05;101623.38;5226609;28;20040;-76
2022/03/09 04:25:39;;;;;;;5.63;2.80;;;;;;;-1.07;95.69;101623.09;5230940;28;20542;-77
2022/03/09 04:28:09;;;;;;;6.45;3.33;;;;;;;-1.15;96.22;101621.97;5233397;28;20033;-75
2022/03/09 04:30:39;;;;;;;7.20;3.13;;;;;;;-1.09;95.99;101623.03;5231592;28;20474;-77
2022/03/09 04:33:11;;;;;;;6.43;3.17;;;;;;;-1.06;94.52;101627.38;5232418;28;20489;-77
2022/03/09 04:35:41;;;;;;;6.68;3.33;;;;;;;-1.03;94.69;101618.06;5229894;28;20028;-77
2022/03/09 04:38:11;;;;;;;5.90;2.75;;;;;;;-1.16;95.13;101630.50;5234453;28;20017;-76
2022/03/09 04:40:42;;;;;;;8.77;2.90;;;;;;;-1.26;96.33;101633.66;5233983;28;20025;-76
2022/03/09 04:43:12;;;;;;;9.30;3.13;;;;;;;-1.27;96.44;101643.03;5235401;28;20028;-77
2022/03/09 04:45:42;;;;;;;11.38;3.10;;;;;;;-1.45;97.43;101642.50;5232416;28;20024;-76
2022/03/09 04:48:13;;;;;;;8.63;3.13;;;;;;;-1.61;98.03;101647.13;5234768;28;20025;-77
2022/03/09 04:50:43;;;;;;;9.55;3.42;;;;;;;-1.48;98.78;101636.41;5231487;28;20029;-76
2022/03/09 04:53:13;;;;;;;5.35;2.88;;;;;;;-1.22;96.91;101640.59;5230362;28;20029;-76
2022/03/09 04:55:44;;;;;;;5.70;2.90;;;;;;;-1.11;94.53;101634.06;5233506;28;20033;-76
2022/03/09 04:58:14;;;;;;;6.53;2.80;;;;;;;-1.24;93.98;101627.72;5227145;28;20043;-76
2022/03/09 05:00:44;;;;;;;7.10;2.92;;;;;;;-1.22;94.81;101631.19;5225675;28;20424;-74
2022/03/09 05:03:15;;;;;;;5.70;2.90;;;;;;;-1.24;96.31;101634.56;5235584;28;20036;-77
2022/03/09 05:05:45;;;;;;;6.00;3.03;;;;;;;-1.17;94.04;101628.78;5231972;28;20498;-77
2022/03/09 05:08:15;;;;;;;4.57;2.40;;;;;;;-1.39;95.53;101634.13;5232564;28;20743;-76
2022/03/09 05:10:46;;;;;;;6.53;2.88;;;;;;;-1.30;94.95;101631.81;5230654;28;20060;-76
2022/03/09 05:13:16;;;;;;;4.80;2.53;;;;;;;-1.52;95.54;101644.81;5235143;28;20031;-76
2022/03/09 05:15:47;;;;;;;6.32;2.97;;;;;;;-1.47;96.79;101653.50;5234410;28;20521;-75
2022/03/09 05:18:17;;;;;;;6.35;3.03;;;;;;;-1.41;96.77;101638.34;5226270;28;20021;-77
2022/03/09 05:20:48;;;;;;;6.95;2.90;;;;;;;-1.50;95.95;101638.06;5228433;28;20525;-76
2022/03/09 05:23:18;;;;;;;5.43;2.72;;;;;;;-1.47;96.37;101644.16;5229357;28;20111;-76
2022/03/09 05:25:48;;;;;;;5.88;3.38;;;;;;;-1.57;95.84;101649.81;5232973;28;20036;-76
2022/03/09 05:28:18;;;;;;;6.95;3.20;;;;;;;-1.90;98.28;101659.84;5228506;28;20028;-76
2022/03/09 05:30:49;;;;;;;5.53;2.90;;;;;;;-1.90;100.00;101657.28;5228621;28;20052;-76
2022/03/09 05:33:19;;;;;;;8.15;3.58;;;;;;;-1.68;99.56;101650.31;5225046;28;20040;-75
2022/03/09 05:35:50;;;;;;;7.82;3.83;;;;;;;-1.75;100.00;101644.13;5232794;28;20508;-76
2022/03/09 05:38:20;;;;;;;6.63;3.33;;;;;;;-1.52;98.54;101648.28;5228403;28;20102;-76
2022/03/09 05:40:50;;;;;;;8.50;3.60;;;;;;;-1.64;98.53;101652.13;5231840;28;20024;-77
2022/03/09 05:43:20;;;;;;;7.07;3.35;;;;;;;-1.50;98.65;101650.88;5229334;28;20033;-75
2022/03/09 05:45:51;;;;;;;8.77;3.15;;;;;;;-1.61;97.20;101658.25;5234334;28;20028;-74
2022/03/09 05:48:21;;;;;;;6.25;3.25;;;;;;;-1.63;98.78;101659.88;5233570;28;20020;-77
2022/03/09 05:50:52;;;;;;;6.85;3.40;;;;;;;-1.81;99.83;101661.00;5232645;28;20020;-75
2022/03/09 05:53:22;;;;;;;7.60;3.47;;;;;;;-1.77;100.00;101657.75;5235588;28;20025;-76
2022/03/09 05:55:52;;;;;;;6.82;3.75;;;;;;;-1.70;99.91;101654.53;5224181;28;20192;-75
2022/03/09 05:58:22;;;;;;;7.93;3.03;;;;;;;-1.58;98.85;101662.59;5232241;28;20028;-76
2022/03/09 06:00:53;;;;;;;8.93;3.30;;;;;;;-1.65;98.49;101658.97;5231146;28;20054;-76
2022/03/09 06:03:23;;;;;;;8.00;3.33;;;;;;;-1.55;96.88;101655.00;5231868;28;20111;-76
2022/03/09 06:05:53;;;;;;;6.32;3.25;;;;;;;-1.76;98.07;101665.44;5231478;28;20051;-76
2022/03/09 06:08:23;;;;;;;8.13;3.42;;;;;;;-1.66;100.00;101667.47;5230697;28;20112;-76
2022/03/09 06:10:54;;;;;;;7.95;3.53;;;;;;;-1.62;100.00;101679.56;5225590;28;20021;-77
2022/03/09 06:13:24;;;;;;;7.43;3.53;;;;;;;-1.55;100.00;101675.50;5226187;28;20033;-77
2022/03/09 06:15:54;;;;;;;6.30;2.75;;;;;;;-1.32;97.57;101677.03;5242108;28;20372;-76
2022/03/09 06:18:24;;;;;;;6.25;3.50;;;;;;;-1.38;98.23;101676.88;5232256;28;20268;-77
2022/03/09 06:20:55;;;;;;;8.80;3.55;;;;;;;-1.33;97.91;101677.88;5235806;28;20025;-76
2022/03/09 06:23:25;;;;;;;6.97;3.20;;;;;;;-1.20;97.61;101677.41;5231228;28;20111;-76
2022/03/09 06:25:55;;;;;;;8.23;3.70;;;;;;;-1.30;99.57;101683.06;5232360;28;20078;-76
2022/03/09 06:28:26;;;;;;;7.50;3.70;;;;;;;-1.29;100.00;101682.25;5229909;28;20051;-77
2022/03/09 06:30:56;;;;;;;8.80;3.90;;;;;;;-1.19;100.00;101681.69;5237307;28;20039;-77
2022/03/09 06:33:26;;;;;;;7.18;3.88;;;;;;;-1.30;100.00;101685.63;5233376;28;20078;-77
2022/03/09 06:35:57;;;;;;;6.75;3.70;;;;;;;-1.17;100.00;101690.31;5241366;28;20032;-77
2022/03/09 06:38:27;;;;;;;7.88;4.03;;;;;;;-1.05;100.00;101676.13;5232951;28;20713;-76
2022/03/09 06:40:57;;;;;;;9.15;3.72;;;;;;;-0.94;100.00;101687.56;5237115;28;20024;-77
2022/03/09 06:43:27;;;;;;;11.85;3.53;;;;;;;-1.01;100.00;101677.09;5232227;28;20102;-77
2022/03/09 06:45:58;;;;;;;6.47;3.50;;;;;;;-0.88;100.00;101684.31;5231931;28;20024;-77
2022/03/09 06:48:28;;;;;;;9.00;3.75;;;;;;;-0.94;100.00;101681.56;5230880;28;20032;-77
2022/03/09 06:50:58;;;;;;;7.97;3.78;;;;;;;-0.82;100.00;101681.91;5232839;28;20016;-76
2022/03/09 06:53:28;;;;;;;7.90;3.70;;;;;;;-0.76;100.00;101689.81;5236300;28;20021;-77
2022/03/09 06:55:59;;;;;;;10.60;4.43;;;;;;;-0.73;100.00;101682.19;5232221;28;20028;-77
2022/03/09 06:58:29;;;;;;;7.13;4.22;;;;;;;-0.59;100.00;101683.44;5231946;28;20025;-77
2022/03/09 07:00:59;;;;;;;8.38;4.07;;;;;;;-0.45;100.00;101684.63;5233509;28;20052;-77
2022/03/09 07:03:30;;;;;;;8.27;4.50;;;;;;;-0.20;100.00;101685.28;5234680;28;20486;-77
2022/03/09 07:06:00;;;;;;;9.35;4.30;;;;;;;-0.04;100.00;101687.41;5228067;28;20028;-77
2022/03/09 07:08:31;;;;;;;8.80;4.57;;;;;;;-0.13;100.00;101686.31;5235014;28;20047;-77
2022/03/09 07:11:01;;;;;;;7.18;3.92;;;;;;;-0.04;100.00;101686.56;5235252;28;20025;-77
2022/03/09 07:13:32;;;;;;;10.00;4.57;;;;;;;0.21;100.00;101685.47;5234775;28;20055;-77
2022/03/09 07:16:02;;;;;;;7.25;4.05;;;;;;;0.36;100.00;101690.97;5230787;28;20071;-76
2022/03/09 07:18:32;;;;;;;8.43;4.00;;;;;;;0.54;100.00;101686.25;5232486;28;20444;-77
2022/03/09 07:21:03;;;;;;;9.85;4.40;;;;;;;0.65;99.52;101689.94;5230642;28;20024;-76
2022/03/09 07:23:33;;;;;;;9.30;4.53;;;;;;;0.65;99.73;101696.75;5228396;28;20074;-76
2022/03/09 07:26:03;;;;;;;8.93;4.15;;;;;;;0.90;98.39;101696.47;5223855;28;20061;-77
2022/03/09 07:28:34;;;;;;;8.88;3.97;;;;;;;1.12;97.51;101696.06;5228941;28;20490;-77
2022/03/09 07:31:04;;;;;;;9.52;4.25;;;;;;;1.63;97.23;101690.22;5233891;28;20017;-76
2022/03/09 07:33:35;;;;;;;10.00;4.22;;;;;;;3.66;90.73;101682.81;5232130;28;20498;-77
2022/03/09 07:36:05;;;;;;;8.35;4.00;;;;;;;5.11;82.14;101677.78;5242102;28;20504;-77
2022/03/09 07:38:38;;;;;;;5.93;3.58;;;;;;;7.85;70.10;101670.47;5226089;28;20032;-77
2022/03/09 07:41:08;;;;;;;6.68;3.58;;;;;;;8.36;68.07;101656.19;5238235;28;20036;-77
2022/03/09 07:43:39;;;;;;;7.72;3.80;;;;;;;8.94;64.12;101663.41;5235241;28;20033;-77
2022/03/09 07:46:09;;;;;;;8.70;3.50;;;;;;;9.85;64.06;101648.22;5235935;28;20024;-77
2022/03/09 07:48:40;;;;;;;6.65;3.50;;;;;;;9.81;61.02;101657.00;5236624;28;20090;-77
2022/03/09 07:51:10;;;;;;;5.50;3.07;;;;;;;11.48;57.25;101642.50;5232258;28;20033;-77
2022/03/09 07:53:42;;;;;;;5.13;3.10;;;;;;;11.69;57.83;101647.28;5235135;28;20278;-77
2022/03/09 07:56:13;;;;;;;5.07;3.10;;;;;;;12.31;57.25;101644.00;5236088;28;20112;-77
2022/03/09 07:58:43;;;;;;;6.00;3.30;;;;;;;12.16;57.42;101650.47;5233550;28;20115;-77
2022/03/09 08:01:14;;;;;;;6.07;3.13;;;;;;;11.63;54.97;101645.66;5235058;28;20028;-77
2022/03/09 08:03:44;;;;;;;6.05;2.85;;;;;;;13.32;53.92;101648.16;5234182;28;20052;-77
2022/03/09 08:06:14;;;;;;;6.40;2.67;;;;;;;13.75;52.44;101649.44;5232979;28;20067;-77
2022/03/09 08:08:45;;;;;;;5.97;3.30;;;;;;;13.32;51.92;101650.78;5235982;28;20502;-77
2022/03/09 08:11:15;;;;;;;5.90;2.95;;;;;;;13.79;51.99;101642.31;5235909;28;20028;-77
2022/03/09 08:13:46;;;;;;;7.45;3.30;;;;;;;12.52;52.79;101659.16;5233913;28;20055;-77
2022/03/09 08:16:16;;;;;;;10.43;3.20;;;;;;;13.10;54.13;101660.19;5236487;28;20704;-77
2022/03/09 08:18:46;;;;;;;6.10;3.27;;;;;;;13.82;51.21;101658.00;5235732;28;20039;-77
2022/03/09 08:21:17;;;;;;;5.57;2.93;;;;;;;13.82;51.73;101656.22;5237941;28;20282;-77
2022/03/09 08:23:47;;;;;;;5.72;3.10;;;;;;;12.70;54.24;101663.94;5236754;28;20278;-77
2022/03/09 08:26:18;;;;;;;5.55;2.95;;;;;;;13.28;50.90;101663.16;5235791;28;20032;-77
2022/03/09 08:28:48;;;;;;;5.13;2.70;;;;;;;14.37;50.87;101653.56;5235585;28;20501;-77
2022/03/09 08:31:19;;;;;;;5.53;3.03;;;;;;;13.63;51.84;101662.09;5239174;28;20024;-77
2022/03/09 08:33:49;;;;;;;4.68;2.90;;;;;;;14.46;50.32;101650.59;5278965;22;20099;-77
2022/03/09 08:36:19;;;;;;;4.88;2.85;;;;;;;15.49;49.48;101648.56;5250192;28;20028;-77
2022/03/09 08:38:50;;;;;;;6.43;2.93;;;;;;;14.21;49.99;101656.72;5256344;28;20024;-77
2022/03/09 08:41:21;;;;;;;4.85;2.70;;;;;;;15.71;48.53;101649.47;5255389;28;20286;-77
2022/03/09 08:43:52;;;;;;;5.65;3.58;;;;;;;15.18;50.21;101651.47;5255577;28;20465;-76
2022/03/09 08:46:22;;;;;;;5.40;3.25;;;;;;;16.03;47.91;101651.66;5252318;28;20107;-77
2022/03/09 08:48:52;;;;;;;6.22;3.15;;;;;;;14.29;49.65;101658.19;5255943;28;20692;-76
2022/03/09 08:51:22;;;;;;;6.93;3.47;;;;;;;13.20;52.55;101659.88;5258584;28;20088;-78
2022/03/09 08:53:53;;;;;;;4.53;2.92;;;;;;;12.58;55.37;101669.50;5260207;28;20304;-77
2022/03/09 08:56:23;;;;;;;5.47;3.28;;;;;;;12.96;52.23;101664.97;5256330;28;20055;-77
2022/03/09 08:58:55;;;;;;;6.05;3.25;;;;;;;14.90;50.02;101658.66;5258625;28;20020;-77
2022/03/09 09:01:25;;;;;;;5.07;3.17;;;;;;;16.08;47.72;101661.09;5251227;28;20112;-77
2022/03/09 09:03:56;;;;;;;5.87;3.27;;;;;;;15.66;48.50;101660.16;5259654;28;20107;-76
2022/03/09 09:06:26;;;;;;;5.43;3.20;;;;;;;14.90;48.17;101661.31;5253880;28;20270;-77
2022/03/09 09:08:56;;;;;;;5.43;3.38;;;;;;;14.01;50.46;101661.75;5254344;28;20054;-78
2022/03/09 09:11:26;;;;;;;5.65;2.83;;;;;;;15.01;48.55;101660.91;5251149;28;20046;-77
2022/03/09 09:13:57;;;;;;;6.10;3.30;;;;;;;15.31;48.54;101652.75;5255738;28;20024;-77
2022/03/09 09:16:27;;;;;;;5.23;3.13;;;;;;;15.59;47.74;101653.44;5255825;28;20286;-77
2022/03/09 09:18:57;;;;;;;8.73;3.10;;;;;;;12.41;52.12;101671.69;5258887;28;20751;-76
2022/03/09 09:21:28;;;;;;;5.30;3.23;;;;;;;13.04;52.57;101670.88;5257253;28;20340;-76
2022/03/09 09:23:58;;;;;;;4.13;2.60;;;;;;;12.15;54.56;101680.19;5261019;28;20278;-78
2022/03/09 09:26:28;;;;;;;5.70;3.00;;;;;;;10.80;57.00;101686.63;5258783;28;20520;-77
2022/03/09 09:28:59;;;;;;;5.50;2.67;;;;;;;10.30;59.44;101682.31;5258512;28;20024;-76
2022/03/09 09:31:29;;;;;;;6.05;3.22;;;;;;;10.42;59.72;101679.50;5259042;28;20059;-77
2022/03/09 09:34:00;;;;;;;5.95;3.30;;;;;;;10.23;59.36;101683.31;5250808;28;20030;-77
2022/03/09 09:36:30;;;;;;;5.75;3.20;;;;;;;9.55;60.79;101685.19;5261493;28;20276;-76
2022/03/09 09:39:01;;;;;;;5.07;2.97;;;;;;;9.17;62.34;101683.06;5253858;28;20592;-76
2022/03/09 09:41:33;;;;;;;4.18;2.83;;;;;;;10.20;61.98;101674.66;5253741;28;20016;-77
2022/03/09 09:44:04;;;;;;;6.25;2.97;;;;;;;9.93;61.87;101681.16;5258688;28;20040;-77
2022/03/09 09:46:38;;;;;;;6.15;3.10;;;;;;;10.04;61.63;101675.81;5259928;28;20035;-76
2022/03/09 09:49:10;;;;;;;4.80;3.00;;;;;;;10.48;61.20;101674.16;5257074;28;20032;-76
2022/03/09 09:51:43;;;;;;;6.75;3.15;;;;;;;10.62;58.69;101677.41;5259545;28;20575;-77
2022/03/09 09:54:16;;;;;;;6.32;3.50;;;;;;;10.33;58.00;101676.19;5254480;28;20024;-76
2022/03/09 09:56:46;;;;;;;6.22;3.33;;;;;;;9.92;60.89;101679.44;5257453;28;20028;-76
2022/03/09 09:59:17;;;;;;;6.88;3.08;;;;;;;10.35;59.43;101677.03;5260301;28;20058;-76
2022/03/09 10:01:47;;;;;;;6.45;3.50;;;;;;;10.66;56.94;101671.22;5260070;28;20027;-77
2022/03/09 10:04:17;;;;;;;7.18;3.50;;;;;;;10.44;59.53;101671.63;5257609;28;20406;-77
2022/03/09 10:06:48;;;;;;;5.03;2.95;;;;;;;10.59;58.84;101667.00;5260729;28;20030;-77
2022/03/09 10:09:19;;;;;;;6.95;3.63;;;;;;;9.89;61.62;101671.66;5252577;28;20024;-77
2022/03/09 10:11:52;;;;;;;10.15;4.05;;;;;;;10.59;59.00;101666.13;5259551;28;20473;-77
2022/03/09 10:14:42;;;;;;;7.57;3.70;;;;;;;10.64;57.20;101665.16;5257266;28;20027;-77
2022/03/09 10:17:22;;;;;;;6.80;3.53;;;;;;;11.09;59.78;101665.13;5256916;28;20035;-77
2022/03/09 10:19:55;;;;;;;8.48;3.35;;;;;;;10.83;57.91;101660.47;5256563;28;20113;-77
2022/03/09 10:22:32;;;;;;;9.60;3.90;;;;;;;10.56;55.90;101668.81;5252119;28;20025;-77
2022/03/09 10:25:08;;;;;;;6.82;3.60;;;;;;;10.56;57.05;101668.81;5260759;28;20025;-77
2022/03/09 10:27:45;;;;;;;6.88;3.50;;;;;;;10.32;54.44;101664.88;5260767;28;20024;-77
2022/03/09 10:30:19;;;;;;;5.47;3.25;;;;;;;10.39;51.28;101669.13;5253868;28;20048;-76
2022/03/09 10:32:59;;;;;;;7.18;3.25;;;;;;;10.43;50.17;101669.91;5253910;28;20032;-77
2022/03/09 10:35:29;;;;;;;5.57;3.35;;;;;;;10.59;49.19;101671.34;5257127;28;20107;-77
2022/03/09 10:38:05;;;;;;;8.13;3.73;;;;;;;10.34;48.67;101665.69;5258860;28;20158;-77
2022/03/09 10:40:41;;;;;;;5.60;3.17;;;;;;;10.41;49.02;101663.84;5249496;28;20020;-77
2022/03/09 10:43:12;;;;;;;5.60;3.03;;;;;;;10.12;49.31;101666.06;5255780;28;20039;-77
2022/03/09 10:45:58;;;;;;;6.32;3.28;;;;;;;10.22;48.60;101670.28;5261875;28;20029;-76
2022/03/09 10:48:49;;;;;;;6.10;3.40;;;;;;;10.38;50.36;101662.13;5249512;28;20060;-76
2022/03/09 10:51:27;;;;;;;6.30;3.20;;;;;;;10.57;49.15;101662.69;5259193;28;20351;-77
2022/03/09 10:53:59;;;;;;;9.88;3.50;;;;;;;10.93;50.19;101656.75;5246618;28;20028;-77
2022/03/09 10:56:30;;;;;;;5.07;2.78;;;;;;;10.68;49.88;101663.34;5257055;28;20111;-76
2022/03/09 10:59:09;;;;;;;8.68;3.92;;;;;;;10.35;51.03;101658.72;5255389;28;20052;-76
2022/03/09 11:01:41;;;;;;;6.05;3.40;;;;;;;10.57;50.14;101663.56;5251745;28;20414;-77
2022/03/09 11:04:17;;;;;;;6.75;3.38;;;;;;;10.73;51.66;101661.50;5247447;28;20032;-77
2022/03/09 11:06:48;;;;;;;6.38;3.70;;;;;;;10.73;51.35;101651.94;5257488;28;20020;-78
2022/03/09 11:09:18;;;;;;;6.85;3.30;;;;;;;10.80;50.88;101655.25;5250198;28;20074;-77
2022/03/09 11:11:49;;;;;;;7.10;4.00;;;;;;;10.83;52.53;101650.00;5250242;28;20025;-76
2022/03/09 11:14:21;;;;;;;7.03;3.67;;;;;;;10.98;52.43;101647.06;5254896;28;20036;-77
2022/03/09 11:16:57;;;;;;;6.75;3.83;;;;;;;10.62;53.85;101655.59;5254925;28;20024;-76
2022/03/09 11:19:27;;;;;;;7.10;3.50;;;;;;;10.47;50.39;101656.75;5250003;28;20577;-77
2022/03/09 11:21:58;;;;;;;6.93;3.88;;;;;;;10.63;49.98;101647.75;5253335;28;20024;-76
2022/03/09 11:24:31;;;;;;;7.40;3.63;;;;;;;10.65;49.94;101653.81;5253057;28;20089;-77
2022/03/09 11:27:03;;;;;;;7.38;3.65;;;;;;;10.69;49.89;101652.00;5256570;28;20051;-76
2022/03/09 11:29:35;;;;;;;6.63;3.53;;;;;;;10.72;50.82;101652.78;5259377;28;20683;-77
2022/03/09 11:32:07;;;;;;;6.32;3.70;;;;;;;10.67;49.22;101643.34;5246501;28;20077;-77
2022/03/09 11:34:43;;;;;;;6.70;3.30;;;;;;;10.58;49.11;101638.25;5246581;28;20056;-76
2022/03/09 11:37:20;;;;;;;7.30;3.95;;;;;;;10.61;49.10;101641.69;5253396;28;20040;-77
2022/03/09 11:40:14;;;;;;;6.45;3.75;;;;;;;10.76;49.57;101643.16;5249391;28;20107;-76
2022/03/09 11:42:45;;;;;;;7.20;3.17;;;;;;;10.75;49.53;101637.06;5249818;28;20104;-77
2022/03/09 11:45:29;;;;;;;6.90;3.88;;;;;;;10.79;48.35;101635.22;5262239;28;20036;-76